aviador You're here:

KGAD Decoded Metar

GADSDEN MUNI in AL, USA
Report Time2017-08-19 13:56:00
UTC Time2017-08-19 14:58:02
Flight Rules vfr VFR
WindCalm
Visibility9999 m
Phenomena:N/A
Clouds:N/A
Expected CloudBase > 1,200 ft AGL from Temp-Dew spread
CeilingNone
Temp25°C (ISA +11)
Dew Point22°C (83% RH)
QNH1017 hPa
Density Alt2,070 ft
Elevation568 ft
Report Wrong Elevation
Raw Report
KGAD 191356Z AUTO 00000KT 10SM CLR 25/22 A3004 RMK AO2 SLP170
T02500217=

Extra information for KGAD:More info

Metar Taf Metar & Taf Last 4 Metars F.Rules Stats Wind Profile Meteogram Temp Stats Airport Information Weather charts Add Link Nearby VenuesMetar ALERT Operation Metar Decoded Social comments

AIRNAV info for KGAD